Time;durP1;ratioP1;P1;durP2;ratioP2;P2;SDS_P1;SDS_P2;PMS_P1;PMS_P2;Temp;Humidity;BMP_temperature;BMP_pressure;BME280_temperature;BME280_humidity;BME280_pressure;Samples;Min_cycle;Max_cycle;Signal;HPM_P1;HPM_P2
2022/07/03 00:01:26;;;;;;;2.20;1.20;;;15.60;97.30;;;;;;5083638;28;19916;-68
2022/07/03 00:03:52;;;;;;;;;;;15.50;97.00;;;;;;5080070;28;20044;-68
2022/07/03 00:06:18;;;;;;;3.90;1.00;;;15.50;97.00;;;;;;5093060;28;20021;-68
2022/07/03 00:08:44;;;;;;;3.15;1.10;;;15.50;97.20;;;;;;5102375;28;20036;-68
2022/07/03 00:11:09;;;;;;;;;;;15.50;97.20;;;;;;5105416;28;20089;-67
2022/07/03 00:13:35;;;;;;;2.58;1.20;;;15.50;97.30;;;;;;5101163;28;19916;-69
2022/07/03 00:16:01;;;;;;;;;;;15.40;97.40;;;;;;5103337;28;20039;-68
2022/07/03 00:18:26;;;;;;;1.30;1.00;;;15.40;97.40;;;;;;5092527;28;20353;-68
2022/07/03 00:20:59;;;;;;;;;;;15.40;97.20;;;;;;5088480;28;20050;-68
2022/07/03 00:23:27;;;;;;;3.88;1.20;;;15.40;97.50;;;;;;5085622;28;20006;-68
2022/07/03 00:25:53;;;;;;;3.83;1.15;;;15.40;97.40;;;;;;5067164;28;20114;-67
2022/07/03 00:28:20;;;;;;;4.88;1.00;;;15.40;97.50;;;;;;5068800;28;20037;-67
2022/07/03 00:30:49;;;;;;;2.15;1.20;;;15.40;97.60;;;;;;5066856;28;20036;-68
2022/07/03 00:33:15;;;;;;;3.13;1.10;;;15.30;97.60;;;;;;5077232;28;20073;-67
2022/07/03 00:35:42;;;;;;;4.20;1.27;;;15.30;97.70;;;;;;5088991;28;20044;-69
2022/07/03 00:38:11;;;;;;;1.75;0.93;;;15.30;97.80;;;;;;5088825;28;20044;-68
2022/07/03 00:40:37;;;;;;;1.80;1.30;;;15.30;98.20;;;;;;5084229;28;20036;-68
2022/07/03 00:43:03;;;;;;;;;;;15.20;98.00;;;;;;5089342;28;20046;-67
2022/07/03 00:45:34;;;;;;;2.15;1.33;;;15.20;98.40;;;;;;5087188;28;19920;-68
2022/07/03 00:48:00;;;;;;;2.97;1.20;;;15.20;98.10;;;;;;5087020;28;20040;-67
2022/07/03 00:50:29;;;;;;;;;;;15.10;98.40;;;;;;5079165;28;20123;-69
2022/07/03 00:52:58;;;;;;;2.42;1.27;;;15.10;98.50;;;;;;5087851;28;19916;-68
2022/07/03 00:55:26;;;;;;;2.15;1.02;;;15.10;98.60;;;;;;5085135;28;20093;-67
2022/07/03 00:57:55;;;;;;;6.50;1.35;;;15.10;98.30;;;;;;5070390;28;20169;-70
2022/07/03 01:00:20;;;;;;;2.33;1.27;;;15.10;98.60;;;;;;5088927;28;20417;-68
2022/07/03 01:02:51;;;;;;;;;;;15.00;98.70;;;;;;5087672;28;20047;-68
2022/07/03 01:05:26;;;;;;;2.15;1.08;;;15.00;98.90;;;;;;5088458;28;19922;-68
2022/07/03 01:08:15;;;;;;;2.15;1.15;;;15.00;98.90;;;;;;5086307;28;20118;-68
2022/07/03 01:10:43;;;;;;;1.83;1.25;;;15.00;99.10;;;;;;5082061;28;20598;-68
2022/07/03 01:13:24;;;;;;;5.35;1.20;;;15.00;99.10;;;;;;5086773;28;20028;-68
2022/07/03 01:15:49;;;;;;;4.88;1.15;;;15.00;99.00;;;;;;5069088;28;20040;-67
2022/07/03 01:18:24;;;;;;;;;;;15.00;99.30;;;;;;5090038;28;20036;-68
2022/07/03 01:20:58;;;;;;;1.45;1.10;;;15.00;99.20;;;;;;5086054;28;19920;-68
2022/07/03 01:24:01;;;;;;;4.70;1.23;;;15.00;98.90;;;;;;5068449;28;20036;-68
2022/07/03 01:26:30;;;;;;;1.90;1.20;;;15.00;98.90;;;;;;5045506;28;20793;-67
2022/07/03 01:29:02;;;;;;;3.42;1.55;;;15.10;99.00;;;;;;5086139;28;20040;-68
2022/07/03 01:31:30;;;;;;;1.52;1.00;;;15.00;98.70;;;;;;5086255;28;20094;-68
2022/07/03 01:33:57;;;;;;;2.50;1.55;;;15.10;98.80;;;;;;5088507;28;20049;-67
2022/07/03 01:36:25;;;;;;;2.15;1.00;;;15.20;98.80;;;;;;5089130;28;20044;-68
2022/07/03 01:38:51;;;;;;;1.48;0.93;;;15.20;99.00;;;;;;5088614;28;20028;-68
2022/07/03 01:41:16;;;;;;;;;;;15.20;98.90;;;;;;5083394;28;20092;-69
2022/07/03 01:43:46;;;;;;;2.97;0.93;;;15.10;98.70;;;;;;5086075;28;19920;-70
2022/07/03 01:46:12;;;;;;;2.10;1.05;;;15.10;99.10;;;;;;5086550;28;20040;-67
2022/07/03 01:48:41;;;;;;;1.92;1.13;;;15.10;98.80;;;;;;5086393;28;20738;-68
2022/07/03 01:51:09;;;;;;;5.68;1.23;;;15.10;99.10;;;;;;5089850;28;20123;-67
2022/07/03 01:53:38;;;;;;;5.65;1.10;;;15.10;98.70;;;;;;5089107;28;20036;-68
2022/07/03 01:56:07;;;;;;;2.67;1.08;;;15.10;99.10;;;;;;5068210;28;20158;-68
2022/07/03 01:58:33;;;;;;;1.02;0.93;;;15.00;98.70;;;;;;5091440;28;20046;-68
2022/07/03 02:01:06;;;;;;;;;;;15.00;99.10;;;;;;5090416;28;20028;-68
2022/07/03 02:03:34;;;;;;;3.35;0.90;;;15.10;99.10;;;;;;5087079;28;19919;-68
2022/07/03 02:06:03;;;;;;;6.25;1.55;;;15.00;99.10;;;;;;5087647;28;20028;-68
2022/07/03 02:09:01;;;;;;;2.10;1.15;;;15.00;99.40;;;;;;5049175;28;20040;-68
2022/07/03 02:11:32;;;;;;;1.48;0.93;;;15.10;99.00;;;;;;5077331;28;20050;-68
2022/07/03 02:14:19;;;;;;;3.05;1.02;;;15.10;99.20;;;;;;5086328;28;20040;-68
2022/07/03 02:16:48;;;;;;;2.28;1.00;;;15.10;98.60;;;;;;5068307;28;20039;-68
2022/07/03 02:19:19;;;;;;;1.02;0.93;;;15.00;98.90;;;;;;5087240;28;20040;-68
2022/07/03 02:21:49;;;;;;;2.40;1.00;;;15.00;98.80;;;;;;5064864;28;20395;-68
2022/07/03 02:24:26;;;;;;;1.55;1.23;;;15.00;99.30;;;;;;5069410;28;20036;-67
2022/07/03 02:27:02;;;;;;;2.65;1.10;;;14.90;99.20;;;;;;5087850;28;20177;-68
2022/07/03 02:29:34;;;;;;;2.45;1.30;;;14.90;99.50;;;;;;5087242;28;20435;-67
2022/07/03 02:32:03;;;;;;;1.50;1.10;;;14.90;99.50;;;;;;5086240;28;20634;-67
2022/07/03 02:34:31;;;;;;;2.50;1.17;;;14.90;99.70;;;;;;5085957;28;20028;-69
2022/07/03 02:37:05;;;;;;;1.10;1.00;;;14.90;99.90;;;;;;5088278;28;20040;-68
2022/07/03 02:39:46;;;;;;;6.03;1.08;;;14.80;99.50;;;;;;5086635;28;20052;-67
2022/07/03 02:42:32;;;;;;;1.42;1.00;;;14.80;99.80;;;;;;5083807;28;20036;-69
2022/07/03 02:45:01;;;;;;;6.03;1.13;;;14.80;99.90;;;;;;5085877;28;20040;-68
2022/07/03 02:47:32;;;;;;;4.25;1.17;;;14.80;99.90;;;;;;5082604;28;20082;-68
2022/07/03 02:50:10;;;;;;;2.17;0.90;;;14.80;99.90;;;;;;5085928;28;20531;-68
2022/07/03 02:52:38;;;;;;;1.80;1.08;;;14.80;99.90;;;;;;5079563;28;20048;-68
2022/07/03 02:55:35;;;;;;;7.07;1.15;;;14.80;99.90;;;;;;5060931;28;20066;-68
2022/07/03 02:58:09;;;;;;;1.88;1.17;;;14.80;99.90;;;;;;5065909;28;20094;-68
2022/07/03 03:00:38;;;;;;;3.17;1.17;;;14.80;99.90;;;;;;5074227;28;20865;-68
2022/07/03 03:03:04;;;;;;;4.63;1.20;;;14.80;99.90;;;;;;5085716;28;20078;-68
2022/07/03 03:05:36;;;;;;;;;;;14.80;99.90;;;;;;5086642;28;20067;-68
2022/07/03 03:08:06;;;;;;;3.50;1.10;;;14.80;99.90;;;;;;5084799;28;19916;-67
2022/07/03 03:10:36;;;;;;;1.67;0.82;;;14.80;99.90;;;;;;5067520;28;20411;-69
2022/07/03 03:13:14;;;;;;;3.10;0.98;;;14.80;99.90;;;;;;5085920;28;20032;-70
2022/07/03 03:15:47;;;;;;;1.10;0.77;;;14.80;99.90;;;;;;5087576;28;20046;-68
2022/07/03 03:18:20;;;;;;;0.80;0.80;;;14.80;99.90;;;;;;5085628;28;20093;-68
2022/07/03 03:20:48;;;;;;;1.42;1.00;;;14.80;99.90;;;;;;5084912;28;20040;-68
2022/07/03 03:23:44;;;;;;;4.32;0.77;;;14.80;99.90;;;;;;5086486;28;20040;-68
2022/07/03 03:26:13;;;;;;;1.05;0.80;;;14.80;99.90;;;;;;5068296;28;20071;-68
2022/07/03 03:28:40;;;;;;;1.17;0.88;;;14.90;99.90;;;;;;5068831;28;20478;-69
2022/07/03 03:31:08;;;;;;;2.08;0.80;;;14.90;99.50;;;;;;5085204;28;20085;-68
2022/07/03 03:33:41;;;;;;;1.65;0.70;;;15.00;99.00;;;;;;5068046;28;20036;-68
2022/07/03 03:36:09;;;;;;;2.47;0.88;;;15.10;98.70;;;;;;5086422;28;20028;-67
2022/07/03 03:38:34;;;;;;;2.28;0.80;;;15.20;98.60;;;;;;5087536;28;20101;-67
2022/07/03 03:41:01;;;;;;;;;;;15.20;98.30;;;;;;5081690;28;20039;-70
2022/07/03 03:43:26;;;;;;;1.58;0.90;;;15.30;98.30;;;;;;5084901;28;19916;-68
2022/07/03 03:45:52;;;;;;;;;;;15.40;98.00;;;;;;5086378;28;20036;-68
2022/07/03 03:48:17;;;;;;;1.50;0.80;;;15.60;97.80;;;;;;5085348;28;19915;-68
2022/07/03 03:50:43;;;;;;;1.75;0.93;;;15.90;97.50;;;;;;5066815;28;20039;-68
2022/07/03 03:53:10;;;;;;;;;;;16.10;97.00;;;;;;5086819;28;20123;-69
2022/07/03 03:55:35;;;;;;;0.95;0.85;;;16.30;96.80;;;;;;5081710;28;19916;-69
2022/07/03 03:58:01;;;;;;;;;;;16.30;96.50;;;;;;5083454;28;20047;-68
2022/07/03 04:00:27;;;;;;;1.48;0.63;;;16.40;96.40;;;;;;5089786;28;20045;-68
2022/07/03 04:02:54;;;;;;;;;;;16.40;96.40;;;;;;5089429;28;20118;-69
2022/07/03 04:05:23;;;;;;;1.30;0.82;;;16.40;96.30;;;;;;5066369;28;19971;-69
2022/07/03 04:07:48;;;;;;;;;;;16.50;96.30;;;;;;5082337;28;20673;-68
2022/07/03 04:10:14;;;;;;;4.32;1.73;;;16.50;95.90;;;;;;5081154;28;20296;-68
2022/07/03 04:12:39;;;;;;;;;;;16.50;96.00;;;;;;5085538;28;20839;-69
2022/07/03 04:15:05;;;;;;;0.80;0.70;;;16.60;96.10;;;;;;5091320;28;19923;-69
2022/07/03 04:17:32;;;;;;;1.20;0.70;;;16.60;96.10;;;;;;5090116;28;20052;-67
2022/07/03 04:19:57;;;;;;;5.97;0.80;;;16.70;95.90;;;;;;5058428;28;20053;-68
2022/07/03 04:22:23;;;;;;;;;;;16.60;96.20;;;;;;5079428;28;20052;-69
2022/07/03 04:24:49;;;;;;;1.00;0.57;;;16.70;96.00;;;;;;5081681;28;19939;-69
2022/07/03 04:27:14;;;;;;;;;;;16.80;96.00;;;;;;5079475;28;20040;-69
2022/07/03 04:29:40;;;;;;;1.42;0.90;;;16.80;95.90;;;;;;5080459;28;20002;-68
2022/07/03 04:32:06;;;;;;;1.00;0.73;;;16.90;96.00;;;;;;5082118;28;20037;-68
2022/07/03 04:34:31;;;;;;;2.40;0.63;;;17.20;95.90;;;;;;5076816;28;20149;-70
2022/07/03 04:36:57;;;;;;;;;;;18.20;94.70;;;;;;5062490;28;20612;-69
2022/07/03 04:39:22;;;;;;;1.38;0.77;;;19.00;92.80;;;;;;5077441;28;20427;-68
2022/07/03 04:41:48;;;;;;;0.77;0.60;;;19.20;92.40;;;;;;5080459;28;20040;-70
2022/07/03 04:44:14;;;;;;;;;;;19.20;92.30;;;;;;5079405;28;20047;-69
2022/07/03 04:46:40;;;;;;;1.88;0.80;;;19.00;93.30;;;;;;5074846;28;19920;-69
2022/07/03 04:49:06;;;;;;;1.05;0.82;;;18.90;93.40;;;;;;5076383;28;20145;-69
2022/07/03 04:51:31;;;;;;;;;;;18.70;93.80;;;;;;5080924;28;20123;-69
2022/07/03 04:53:57;;;;;;;2.25;0.95;;;18.50;93.60;;;;;;5073478;28;19920;-67
2022/07/03 04:56:22;;;;;;;1.90;0.68;;;18.40;94.10;;;;;;5070650;28;20675;-68
2022/07/03 04:58:48;;;;;;;2.90;0.90;;;18.50;94.00;;;;;;5083077;28;20380;-67
2022/07/03 05:01:13;;;;;;;4.20;0.60;;;18.90;93.20;;;;;;5087341;28;20036;-68
2022/07/03 05:03:39;;;;;;;2.63;0.88;;;18.90;93.40;;;;;;5085989;28;20067;-67
2022/07/03 05:06:04;;;;;;;1.02;0.80;;;18.90;93.40;;;;;;5092431;28;20040;-67
2022/07/03 05:08:30;;;;;;;2.30;1.17;;;18.80;94.00;;;;;;5090100;28;20070;-69
2022/07/03 05:10:56;;;;;;;;;;;18.80;94.60;;;;;;5077544;28;20036;-66
2022/07/03 05:13:21;;;;;;;3.90;1.15;;;18.70;95.10;;;;;;5084194;28;19926;-67
2022/07/03 05:15:47;;;;;;;;;;;18.70;95.10;;;;;;5072244;28;20064;-67
2022/07/03 05:18:12;;;;;;;1.38;0.80;;;18.80;95.40;;;;;;5089875;28;19919;-67
2022/07/03 05:20:38;;;;;;;;;;;18.80;95.30;;;;;;5068064;28;20633;-71
2022/07/03 05:23:03;;;;;;;3.70;1.20;;;18.80;95.50;;;;;;5066794;28;19916;-67
2022/07/03 05:25:31;;;;;;;0.95;0.70;;;18.90;95.60;;;;;;5049553;28;20111;-69
2022/07/03 05:27:57;;;;;;;1.67;0.80;;;18.90;94.70;;;;;;5075268;28;20044;-69
2022/07/03 05:30:25;;;;;;;3.58;1.10;;;19.10;95.70;;;;;;5086224;28;20510;-70
2022/07/03 05:32:51;;;;;;;2.78;0.70;;;19.20;95.50;;;;;;5086475;28;20032;-64
2022/07/03 05:35:17;;;;;;;1.63;0.90;;;19.20;94.10;;;;;;5088448;28;20038;-68
2022/07/03 05:37:43;;;;;;;;;;;19.60;93.30;;;;;;5057301;28;20040;-66
2022/07/03 05:40:09;;;;;;;2.22;0.88;;;19.70;93.90;;;;;;5089343;28;20303;-68
2022/07/03 05:42:35;;;;;;;4.15;0.85;;;20.30;94.10;;;;;;5080104;28;20036;-68
2022/07/03 05:45:01;;;;;;;2.60;0.93;;;20.30;94.00;;;;;;5088008;28;20044;-66
2022/07/03 05:47:27;;;;;;;3.58;1.10;;;20.50;93.00;;;;;;5068889;28;20514;-68
2022/07/03 05:49:53;;;;;;;;;;;20.80;93.60;;;;;;5082402;28;20028;-67
2022/07/03 05:52:18;;;;;;;0.77;0.70;;;20.50;93.40;;;;;;5081936;28;19927;-67
2022/07/03 05:54:44;;;;;;;;;;;20.30;92.10;;;;;;5088623;28;20070;-67
2022/07/03 05:57:10;;;;;;;3.92;0.77;;;20.20;91.80;;;;;;5069727;28;19924;-69
2022/07/03 05:59:36;;;;;;;4.03;1.00;;;20.20;92.90;;;;;;5083611;28;20047;-69
2022/07/03 06:02:02;;;;;;;;;;;20.20;92.60;;;;;;5087520;28;20032;-69
2022/07/03 06:04:27;;;;;;;1.38;0.60;;;20.20;92.00;;;;;;5088724;28;19923;-67
2022/07/03 06:06:54;;;;;;;2.40;1.10;;;20.30;91.30;;;;;;5088666;28;20040;-68
2022/07/03 06:09:20;;;;;;;0.77;0.63;;;20.30;91.50;;;;;;5088185;28;20031;-69
2022/07/03 06:11:47;;;;;;;;;;;20.40;92.00;;;;;;5086369;28;20035;-69
2022/07/03 06:14:13;;;;;;;6.93;0.95;;;20.40;90.90;;;;;;5082977;28;19920;-69
2022/07/03 06:16:39;;;;;;;2.72;0.68;;;20.50;90.00;;;;;;5085300;28;20080;-69
2022/07/03 06:19:05;;;;;;;;;;;20.70;91.10;;;;;;5081446;28;20596;-69
2022/07/03 06:21:31;;;;;;;2.83;0.82;;;21.10;90.30;;;;;;5082081;28;19939;-67
2022/07/03 06:23:57;;;;;;;2.72;0.90;;;22.00;90.00;;;;;;5081043;28;20081;-68
2022/07/03 06:26:23;;;;;;;2.67;0.70;;;22.60;85.10;;;;;;5079536;28;20072;-67
2022/07/03 06:28:49;;;;;;;9.88;0.98;;;22.50;84.50;;;;;;5071977;28;20524;-69
2022/07/03 06:31:14;;;;;;;2.75;1.00;;;22.20;84.30;;;;;;5086083;28;20032;-67
2022/07/03 06:33:40;;;;;;;4.00;1.00;;;22.00;85.20;;;;;;5089043;28;20063;-69
2022/07/03 06:36:06;;;;;;;3.08;0.82;;;21.80;83.90;;;;;;5089277;28;20484;-68
2022/07/03 06:38:31;;;;;;;1.33;0.82;;;22.00;87.10;;;;;;5086930;28;20038;-67
2022/07/03 06:40:57;;;;;;;3.70;0.80;;;22.30;84.10;;;;;;5086262;28;20603;-67
2022/07/03 06:43:22;;;;;;;1.45;0.70;;;22.30;82.70;;;;;;5086347;28;20577;-68
2022/07/03 06:45:48;;;;;;;2.53;0.88;;;22.30;85.10;;;;;;5086092;28;20044;-68
2022/07/03 06:48:14;;;;;;;1.80;0.80;;;22.20;83.20;;;;;;5087269;28;20124;-67
2022/07/03 06:50:39;;;;;;;3.13;1.00;;;22.20;83.20;;;;;;5086391;28;20457;-68
2022/07/03 06:53:05;;;;;;;4.97;1.02;;;22.20;83.00;;;;;;5086373;28;20032;-68
2022/07/03 06:55:31;;;;;;;2.70;0.82;;;22.40;82.20;;;;;;5065078;28;20561;-68
2022/07/03 06:57:56;;;;;;;4.05;0.70;;;22.70;81.70;;;;;;5066409;28;20099;-68
2022/07/03 07:00:22;;;;;;;2.55;1.00;;;22.80;83.40;;;;;;5073198;28;20054;-68
2022/07/03 07:02:47;;;;;;;2.88;0.95;;;22.70;82.40;;;;;;5086738;28;20040;-68
2022/07/03 07:05:13;;;;;;;1.67;0.70;;;22.40;82.70;;;;;;5088437;28;20081;-68
2022/07/03 07:07:38;;;;;;;1.20;0.68;;;22.30;84.20;;;;;;5087496;28;20105;-69
2022/07/03 07:10:04;;;;;;;2.90;1.08;;;22.20;87.20;;;;;;5086660;28;20044;-67
2022/07/03 07:12:30;;;;;;;2.28;0.85;;;22.20;82.90;;;;;;5086742;28;20039;-68
2022/07/03 07:14:56;;;;;;;3.40;0.70;;;22.10;83.70;;;;;;5068836;28;20046;-68
2022/07/03 07:17:21;;;;;;;4.75;0.70;;;22.20;85.70;;;;;;5069788;28;20052;-68
2022/07/03 07:19:47;;;;;;;1.67;0.80;;;22.30;83.00;;;;;;5068748;28;20070;-66
2022/07/03 07:22:13;;;;;;;1.00;0.40;;;22.30;82.20;;;;;;5086608;28;20109;-67
2022/07/03 07:24:38;;;;;;;3.75;0.98;;;22.70;78.10;;;;;;5085371;28;20032;-69
2022/07/03 07:27:04;;;;;;;2.45;0.63;;;23.30;78.00;;;;;;5087098;28;20047;-68
2022/07/03 07:29:30;;;;;;;5.20;0.80;;;23.70;78.40;;;;;;5089172;28;20040;-69
2022/07/03 07:31:56;;;;;;;1.75;0.75;;;23.60;76.00;;;;;;5090815;28;20038;-68
2022/07/03 07:34:21;;;;;;;4.63;0.47;;;23.10;77.70;;;;;;5092048;28;20039;-67
2022/07/03 07:36:47;;;;;;;1.17;0.82;;;23.00;79.80;;;;;;5089586;28;20040;-66
2022/07/03 07:39:12;;;;;;;0.77;0.60;;;22.80;78.80;;;;;;5087090;28;20036;-67
2022/07/03 07:41:38;;;;;;;1.10;0.60;;;22.70;82.90;;;;;;5085080;28;20491;-67
2022/07/03 07:44:04;;;;;;;1.10;0.70;;;22.80;82.00;;;;;;5090522;28;20028;-67
2022/07/03 07:46:31;;;;;;;1.40;0.60;;;22.70;78.00;;;;;;5089733;28;20036;-65
2022/07/03 07:48:56;;;;;;;1.80;1.00;;;22.60;79.40;;;;;;5087000;28;20403;-67
2022/07/03 07:51:22;;;;;;;1.35;0.98;;;22.50;77.90;;;;;;5082461;28;20419;-66
2022/07/03 07:53:49;;;;;;;4.13;0.90;;;22.60;80.10;;;;;;5088425;28;20042;-68
2022/07/03 07:56:14;;;;;;;1.15;0.80;;;22.60;84.10;;;;;;5072232;28;20081;-68
2022/07/03 07:58:40;;;;;;;1.95;0.80;;;22.90;79.70;;;;;;5089218;28;20083;-68
2022/07/03 08:06:34;;;;;;;3.10;0.55;;;22.90;79.80;;;;;;5087564;28;20068;-67
2022/07/03 08:09:00;;;;;;;1.75;0.57;;;23.00;80.80;;;;;;5088491;28;20071;-68
2022/07/03 08:11:25;;;;;;;4.95;1.42;;;23.00;77.10;;;;;;5081398;28;20060;-67
2022/07/03 08:13:51;;;;;;;2.28;0.93;;;22.80;79.40;;;;;;5090793;28;20393;-68
2022/07/03 08:16:17;;;;;;;1.10;0.55;;;23.70;75.80;;;;;;5090907;28;20036;-67
2022/07/03 08:18:43;;;;;;;2.15;0.68;;;24.20;77.00;;;;;;5085825;28;20028;-67
2022/07/03 08:21:08;;;;;;;3.28;0.70;;;24.80;73.00;;;;;;5085302;28;20036;-68
2022/07/03 08:23:34;;;;;;;1.55;0.95;;;25.30;72.30;;;;;;5088351;28;20079;-68
2022/07/03 08:26:00;;;;;;;1.95;0.70;;;25.20;70.30;;;;;;5089934;28;20040;-70
2022/07/03 08:28:26;;;;;;;5.13;0.68;;;24.80;73.60;;;;;;5089446;28;20411;-68
2022/07/03 08:30:52;;;;;;;4.22;0.70;;;24.50;73.90;;;;;;5088671;28;20028;-68
2022/07/03 08:33:17;;;;;;;1.38;0.70;;;24.40;73.10;;;;;;5089151;28;20097;-67
2022/07/03 08:35:43;;;;;;;1.27;0.55;;;24.30;77.50;;;;;;5089614;28;20137;-69
2022/07/03 08:38:09;;;;;;;0.80;0.60;;;24.60;75.00;;;;;;5070511;28;20036;-68
2022/07/03 08:40:35;;;;;;;5.63;0.90;;;25.00;76.10;;;;;;5089338;28;20032;-69
2022/07/03 08:43:01;;;;;;;4.45;0.90;;;25.80;72.60;;;;;;5088616;28;20036;-69
2022/07/03 08:45:27;;;;;;;1.73;0.50;;;27.10;65.70;;;;;;5090290;28;20035;-69
2022/07/03 08:47:54;;;;;;;4.70;0.90;;;28.90;63.10;;;;;;5089375;28;20427;-69
2022/07/03 08:50:20;;;;;;;2.08;0.80;;;30.20;62.80;;;;;;5088454;28;20047;-69
2022/07/03 08:52:47;;;;;;;1.02;0.68;;;31.00;58.40;;;;;;5088435;28;20080;-69
2022/07/03 08:55:14;;;;;;;1.17;0.55;;;32.20;57.30;;;;;;5087055;28;20086;-69
2022/07/03 08:57:41;;;;;;;5.05;0.70;;;31.70;52.80;;;;;;5089194;28;20492;-69
2022/07/03 09:00:12;;;;;;;1.45;0.93;;;31.20;54.70;;;;;;5088381;28;20748;-69
2022/07/03 09:02:41;;;;;;;1.67;0.70;;;30.80;56.60;;;;;;5085314;28;20036;-68
2022/07/03 09:05:08;;;;;;;2.42;0.65;;;29.80;57.80;;;;;;5084498;28;20139;-68
2022/07/03 09:07:39;;;;;;;1.13;0.55;;;28.50;60.30;;;;;;5069797;28;20039;-68
2022/07/03 09:10:08;;;;;;;1.50;0.60;;;27.50;61.30;;;;;;5070193;28;20047;-68
2022/07/03 09:12:34;;;;;;;2.35;0.50;;;26.40;62.60;;;;;;5059213;28;20040;-70
2022/07/03 09:15:02;;;;;;;1.10;0.70;;;25.70;65.70;;;;;;5080923;28;20047;-68
2022/07/03 09:17:28;;;;;;;2.25;0.88;;;25.30;69.40;;;;;;5083295;28;20125;-68
2022/07/03 09:19:53;;;;;;;2.92;0.63;;;25.20;67.50;;;;;;5077695;28;20511;-67
2022/07/03 09:22:30;;;;;;;1.17;0.60;;;24.90;68.10;;;;;;5081975;28;20055;-68
2022/07/03 09:25:08;;;;;;;4.40;0.60;;;24.80;70.30;;;;;;5088831;28;20044;-67
2022/07/03 09:27:34;;;;;;;2.58;0.85;;;24.90;70.60;;;;;;5070162;28;20048;-68
2022/07/03 09:30:03;;;;;;;1.23;0.60;;;24.60;73.50;;;;;;5087894;28;20451;-67
2022/07/03 09:32:38;;;;;;;1.77;0.95;;;24.40;70.90;;;;;;5088416;28;20047;-68
2022/07/03 09:35:22;;;;;;;1.73;0.80;;;24.30;71.60;;;;;;5088766;28;20614;-69
2022/07/03 09:37:49;;;;;;;1.00;0.80;;;24.10;71.90;;;;;;5088715;28;20044;-67
2022/07/03 09:40:16;;;;;;;2.28;0.80;;;24.30;73.40;;;;;;5080093;28;20043;-67
2022/07/03 09:42:57;;;;;;;2.95;0.50;;;24.00;72.50;;;;;;5082152;28;20105;-68
2022/07/03 09:45:22;;;;;;;5.75;0.73;;;24.30;72.40;;;;;;5086193;28;20055;-67
2022/07/03 09:47:48;;;;;;;7.65;0.80;;;24.50;70.00;;;;;;5085140;28;20150;-68
2022/07/03 09:50:15;;;;;;;1.13;0.68;;;24.40;71.10;;;;;;5077136;28;20032;-67
2022/07/03 09:52:45;;;;;;;2.25;0.65;;;24.40;71.80;;;;;;5071213;28;20036;-67
2022/07/03 09:55:10;;;;;;;2.53;0.70;;;24.10;71.50;;;;;;5089302;28;20036;-69
2022/07/03 09:57:59;;;;;;;4.57;0.80;;;23.90;72.00;;;;;;5068858;28;20433;-67
2022/07/03 10:00:27;;;;;;;2.35;0.90;;;24.20;72.60;;;;;;5088076;28;20050;-68
2022/07/03 10:03:03;;;;;;;3.20;0.88;;;24.20;72.20;;;;;;5070695;28;20043;-68
2022/07/03 10:05:34;;;;;;;1.42;0.57;;;24.20;73.10;;;;;;5087385;28;20044;-68
2022/07/03 10:08:02;;;;;;;0.43;0.40;;;24.50;70.10;;;;;;5087591;28;20036;-68
2022/07/03 10:10:31;;;;;;;5.28;0.65;;;24.70;69.70;;;;;;5087501;28;20064;-68
2022/07/03 10:12:57;;;;;;;1.48;0.60;;;24.80;68.10;;;;;;5085314;28;20079;-64
2022/07/03 10:15:26;;;;;;;0.85;0.60;;;25.00;68.00;;;;;;5088500;28;20036;-67
2022/07/03 10:17:54;;;;;;;2.35;0.63;;;24.90;69.40;;;;;;5085792;28;20035;-68
2022/07/03 10:20:26;;;;;;;1.00;0.50;;;24.80;67.80;;;;;;5082358;28;20037;-66
2022/07/03 10:22:52;;;;;;;1.63;0.73;;;24.70;71.20;;;;;;5086277;28;20056;-66
2022/07/03 10:25:18;;;;;;;1.30;0.45;;;24.80;68.60;;;;;;5086550;28;20538;-65
2022/07/03 10:27:47;;;;;;;1.73;0.68;;;24.70;70.10;;;;;;5077848;28;20040;-66
2022/07/03 10:30:18;;;;;;;0.50;0.30;;;24.50;68.30;;;;;;5083459;28;20038;-64
2022/07/03 10:32:45;;;;;;;3.90;0.82;;;24.40;69.30;;;;;;5063809;28;20143;-67
2022/07/03 10:35:17;;;;;;;3.85;0.80;;;24.20;70.00;;;;;;5074211;28;20035;-66
2022/07/03 10:38:01;;;;;;;3.47;0.77;;;24.30;67.60;;;;;;5083013;28;20098;-68
2022/07/03 10:46:22;;;;;;;1.40;0.60;;;24.80;65.00;;;;;;5084757;28;20043;-66
2022/07/03 10:49:10;;;;;;;5.43;0.80;;;24.80;66.80;;;;;;5085615;28;20035;-67
2022/07/03 10:51:48;;;;;;;2.05;0.60;;;24.80;65.90;;;;;;5082597;28;20040;-67
2022/07/03 10:54:25;;;;;;;1.15;0.57;;;24.80;66.90;;;;;;5081038;28;20032;-68
2022/07/03 10:57:02;;;;;;;2.67;0.82;;;24.90;66.90;;;;;;5084102;28;20044;-67
2022/07/03 10:59:46;;;;;;;0.93;0.60;;;25.00;64.50;;;;;;5060367;28;20335;-67
2022/07/03 11:02:31;;;;;;;1.50;0.77;;;25.30;64.80;;;;;;5086866;28;20067;-67
2022/07/03 11:04:57;;;;;;;2.42;0.50;;;25.10;65.00;;;;;;5099008;28;20507;-67
2022/07/03 11:07:36;;;;;;;1.02;0.65;;;24.70;63.00;;;;;;5102038;28;20689;-67
2022/07/03 11:10:10;;;;;;;1.10;0.73;;;24.40;65.50;;;;;;5107619;28;20043;-68
2022/07/03 11:12:58;;;;;;;3.72;0.88;;;24.30;65.70;;;;;;5088807;28;20090;-67
2022/07/03 11:15:48;;;;;;;4.30;0.60;;;24.40;67.30;;;;;;5086981;28;20040;-68
2022/07/03 11:18:17;;;;;;;1.13;0.57;;;24.70;66.80;;;;;;5091297;28;20509;-67
2022/07/03 11:20:43;;;;;;;1.30;0.73;;;24.50;64.70;;;;;;5107507;28;20092;-67
2022/07/03 11:23:29;;;;;;;6.35;0.90;;;24.50;68.80;;;;;;5108401;28;20126;-68
2022/07/03 11:26:07;;;;;;;2.92;0.82;;;24.70;66.70;;;;;;5089857;28;20036;-67
2022/07/03 11:28:33;;;;;;;3.30;0.55;;;24.80;68.40;;;;;;5105862;28;20126;-67
2022/07/03 11:31:11;;;;;;;1.08;0.70;;;24.70;67.40;;;;;;5106730;28;20118;-66
2022/07/03 11:33:42;;;;;;;0.90;0.40;;;24.70;67.40;;;;;;5106694;28;20046;-68
2022/07/03 11:36:17;;;;;;;1.42;0.70;;;25.10;65.40;;;;;;5107058;28;20036;-67
2022/07/03 11:38:55;;;;;;;0.93;0.55;;;25.30;64.90;;;;;;5106025;28;20099;-67
2022/07/03 11:41:21;;;;;;;1.42;0.63;;;25.30;61.30;;;;;;5107049;28;20039;-68
2022/07/03 11:43:49;;;;;;;0.93;0.50;;;25.40;65.50;;;;;;5098505;28;20036;-67
2022/07/03 11:46:23;;;;;;;2.75;0.63;;;25.40;61.90;;;;;;5104326;28;20077;-67
2022/07/03 11:48:49;;;;;;;1.25;0.68;;;25.10;66.30;;;;;;5106109;28;20403;-67
2022/07/03 11:51:15;;;;;;;3.50;1.00;;;25.10;65.10;;;;;;5108108;28;20036;-68
2022/07/03 11:53:41;;;;;;;1.50;0.52;;;25.30;65.70;;;;;;5102446;28;20038;-67
2022/07/03 11:56:09;;;;;;;1.42;0.60;;;25.50;68.00;;;;;;5106719;28;20054;-67
2022/07/03 11:58:53;;;;;;;1.83;0.75;;;25.60;62.50;;;;;;5106094;28;20031;-68
2022/07/03 12:01:27;;;;;;;4.95;0.60;;;25.70;63.60;;;;;;5102919;28;20611;-68
2022/07/03 12:04:03;;;;;;;3.28;0.50;;;25.70;62.40;;;;;;5112326;28;20039;-68
2022/07/03 12:06:40;;;;;;;1.03;0.63;;;25.90;63.80;;;;;;5108572;27;20040;-66
2022/07/03 12:09:38;;;;;;;2.63;0.90;;;25.80;61.90;;;;;;5105830;28;20280;-68
2022/07/03 12:12:10;;;;;;;2.45;0.60;;;25.80;63.20;;;;;;5104270;28;20043;-68
2022/07/03 12:14:46;;;;;;;2.10;0.60;;;25.80;61.30;;;;;;5099481;28;20626;-67
2022/07/03 12:17:23;;;;;;;1.38;0.60;;;25.50;61.90;;;;;;5102111;28;20036;-68
2022/07/03 12:19:56;;;;;;;1.38;0.63;;;25.60;63.50;;;;;;5100897;28;20177;-68
2022/07/03 12:22:29;;;;;;;0.65;0.50;;;25.80;63.20;;;;;;5104756;28;20036;-68
2022/07/03 12:25:09;;;;;;;1.20;0.68;;;26.10;63.20;;;;;;5102808;28;20043;-67
2022/07/03 12:27:43;;;;;;;1.48;0.68;;;26.10;63.40;;;;;;5106782;28;20040;-68
2022/07/03 12:30:22;;;;;;;1.25;0.70;;;26.00;62.00;;;;;;5106776;28;20530;-67
2022/07/03 12:32:48;;;;;;;;;;;26.20;60.80;;;;;;5109802;28;20088;-68
2022/07/03 12:35:13;;;;;;;0.90;0.53;;;26.40;63.50;;;;;;5111040;28;19919;-67
2022/07/03 12:37:44;;;;;;;3.30;0.90;;;26.50;59.80;;;;;;5110989;28;20098;-68
2022/07/03 12:40:13;;;;;;;1.73;0.68;;;26.50;60.50;;;;;;5112039;28;20048;-68
2022/07/03 12:42:55;;;;;;;1.05;0.52;;;26.60;58.40;;;;;;5106207;28;20508;-67
2022/07/03 12:45:23;;;;;;;2.65;0.60;;;26.50;59.00;;;;;;5109739;28;20043;-68
2022/07/03 12:48:04;;;;;;;4.53;0.90;;;26.50;61.00;;;;;;5108916;28;20680;-67
2022/07/03 12:50:45;;;;;;;1.58;0.63;;;26.60;62.20;;;;;;5109798;28;20047;-69
2022/07/03 12:53:10;;;;;;;0.90;0.52;;;26.70;60.80;;;;;;5108643;28;20103;-68
2022/07/03 12:55:43;;;;;;;0.70;0.40;;;26.80;58.90;;;;;;5109445;28;20566;-67
2022/07/03 13:01:05;;;;;;;3.25;0.63;;;26.40;59.40;;;;;;5104067;28;20031;-67
2022/07/03 13:03:35;;;;;;;1.55;0.60;;;26.30;60.20;;;;;;5109464;28;20332;-68
2022/07/03 13:06:01;;;;;;;8.30;0.90;;;26.00;61.70;;;;;;5109422;28;20472;-68
2022/07/03 13:08:26;;;;;;;6.40;0.65;;;26.00;58.90;;;;;;5110214;28;20085;-67
2022/07/03 13:10:57;;;;;;;0.73;0.60;;;26.20;58.50;;;;;;5109019;28;20035;-68
2022/07/03 13:13:23;;;;;;;6.22;0.52;;;26.10;59.10;;;;;;5105403;28;20044;-68
2022/07/03 13:15:49;;;;;;;2.72;0.88;;;26.30;61.50;;;;;;5109132;27;20034;-67
2022/07/03 13:18:14;;;;;;;0.93;0.52;;;26.20;60.50;;;;;;5109973;28;20078;-69
2022/07/03 13:20:40;;;;;;;4.65;0.70;;;25.70;60.40;;;;;;5108763;28;20091;-68